Time;durP1;ratioP1;P1;durP2;ratioP2;P2;SDS_P1;SDS_P2;PMS_P1;PMS_P2;Temp;Humidity;BMP_temperature;BMP_pressure;BME280_temperature;BME280_humidity;BME280_pressure;Samples;Min_cycle;Max_cycle;Signal;HPM_P1;HPM_P2
2021/01/11 00:00:35;;;;;;;31.10;18.40;;;;;;;1.59;57.07;97062.46;1789841;78;21076;-52
2021/01/11 00:03:04;;;;;;;27.37;17.02;;;;;;;1.64;57.06;97059.78;1754305;80;21405;-54
2021/01/11 00:05:32;;;;;;;29.48;16.50;;;;;;;1.66;56.71;97058.02;1724845;81;21378;-54
2021/01/11 00:08:01;;;;;;;26.87;16.17;;;;;;;1.66;56.45;97054.17;1791385;78;21120;-54
2021/01/11 00:10:28;;;;;;;24.72;14.85;;;;;;;1.64;56.37;97050.83;1790542;80;21151;-57
2021/01/11 00:12:56;;;;;;;24.07;14.25;;;;;;;1.64;56.36;97052.97;1791507;78;21081;-53
2021/01/11 00:15:24;;;;;;;30.68;16.85;;;;;;;1.64;56.21;97055.53;1799503;78;21506;-54
2021/01/11 00:17:51;;;;;;;24.65;14.75;;;;;;;1.65;56.66;97053.35;1783611;79;21659;-53
2021/01/11 00:20:19;;;;;;;26.12;15.40;;;;;;;1.64;56.71;97055.95;1791484;78;21152;-53
2021/01/11 00:22:48;;;;;;;25.35;14.85;;;;;;;1.59;57.06;97047.56;1775137;79;21207;-53
2021/01/11 00:25:16;;;;;;;21.90;13.93;;;;;;;1.52;57.06;97046.06;1796269;78;21050;-54
2021/01/11 00:27:44;;;;;;;23.70;13.97;;;;;;;1.49;57.33;97044.87;1793602;78;21202;-54
2021/01/11 00:30:12;;;;;;;22.30;13.48;;;;;;;1.53;56.92;97043.47;1763327;80;21154;-54
2021/01/11 00:32:42;;;;;;;19.82;12.58;;;;;;;1.53;56.92;97043.47;1775411;80;21144;-53
2021/01/11 00:35:10;;;;;;;18.87;12.00;;;;;;;1.55;56.82;97048.09;1796383;78;21135;-54
2021/01/11 00:37:38;;;;;;;21.00;12.50;;;;;;;1.50;56.66;97047.39;1790787;78;21205;-53
2021/01/11 00:40:08;;;;;;;24.85;14.10;;;;;;;1.30;57.07;97046.64;1779257;80;21608;-54
2021/01/11 00:42:35;;;;;;;22.75;13.45;;;;;;;1.18;57.80;97042.66;1775974;80;21161;-53
2021/01/11 00:45:07;;;;;;;20.85;12.20;;;;;;;1.01;58.11;97048.66;1764437;80;21068;-54
2021/01/11 00:47:41;;;;;;;22.07;12.88;;;;;;;0.90;58.67;97052.75;1794047;78;21493;-54
2021/01/11 00:50:12;;;;;;;14.80;9.65;;;;;;;0.77;58.68;97047.09;1768676;79;21548;-54
2021/01/11 00:52:41;;;;;;;17.40;9.80;;;;;;;0.46;59.05;97026.55;1778085;79;21195;-54
2021/01/11 00:55:12;;;;;;;16.55;9.40;;;;;;;0.46;59.05;97026.55;1744861;80;21147;-53
2021/01/11 00:57:42;;;;;;;15.53;10.20;;;;;;;0.31;59.53;97037.95;1768422;79;21160;-52
2021/01/11 01:00:14;;;;;;;13.18;9.45;;;;;;;0.16;60.17;97028.52;1765774;79;21157;-53
2021/01/11 01:02:44;;;;;;;18.00;11.45;;;;;;;0.07;60.45;97031.70;1775168;79;21450;-53
2021/01/11 01:05:19;;;;;;;16.37;9.60;;;;;;;0.01;60.76;97036.93;1770016;79;21379;-54
2021/01/11 01:08:14;;;;;;;18.92;10.30;;;;;;;0.06;60.85;97036.39;1697481;83;21212;-54
2021/01/11 01:10:42;;;;;;;16.55;10.28;;;;;;;0.16;60.92;97065.52;1693764;83;21100;-53
2021/01/11 01:13:09;;;;;;;15.90;10.40;;;;;;;0.16;60.92;97065.52;1695212;83;21079;-53
2021/01/11 01:15:37;;;;;;;17.27;11.30;;;;;;;0.16;60.67;97061.69;1692013;83;21591;-54
2021/01/11 01:18:05;;;;;;;17.32;10.28;;;;;;;0.21;60.76;97060.30;1665135;84;21634;-55
2021/01/11 01:20:32;;;;;;;16.55;10.78;;;;;;;0.34;60.60;97051.94;1689158;83;21116;-54
2021/01/11 01:23:00;;;;;;;19.05;11.68;;;;;;;0.65;60.29;97044.41;1687634;83;21602;-54
2021/01/11 01:25:28;;;;;;;13.35;9.50;;;;;;;0.65;60.29;97044.41;1726339;82;21067;-54
2021/01/11 01:27:55;;;;;;;18.80;10.80;;;;;;;0.83;59.97;97043.57;1718459;82;21138;-54
2021/01/11 01:30:23;;;;;;;14.55;10.20;;;;;;;0.90;59.23;97042.11;1721146;82;22291;-54
2021/01/11 01:32:52;;;;;;;17.40;10.95;;;;;;;0.99;58.92;97045.31;1716879;82;21091;-53
2021/01/11 01:35:20;;;;;;;20.85;12.53;;;;;;;1.17;59.17;97042.28;1720158;82;21100;-55
2021/01/11 01:37:47;;;;;;;18.23;11.73;;;;;;;1.17;59.17;97042.28;1725131;82;21175;-55
2021/01/11 01:40:15;;;;;;;19.73;12.70;;;;;;;1.24;58.10;97041.69;1722925;82;21156;-54
2021/01/11 01:42:44;;;;;;;25.82;14.45;;;;;;;1.24;58.10;97041.69;1726137;82;21175;-55
2021/01/11 01:45:12;;;;;;;24.20;13.08;;;;;;;1.23;57.96;97041.27;1731084;82;21192;-54
2021/01/11 01:47:40;;;;;;;24.00;13.55;;;;;;;1.20;57.88;97037.52;1719509;82;28566;-54
2021/01/11 01:50:12;;;;;;;22.35;12.75;;;;;;;1.13;57.98;97036.84;1718279;82;21626;-53
2021/01/11 01:52:42;;;;;;;15.75;10.23;;;;;;;1.09;58.17;97025.03;1720748;82;21402;-54
2021/01/11 01:55:11;;;;;;;16.37;10.98;;;;;;;1.15;58.11;97025.30;1717319;82;21406;-53
2021/01/11 01:57:41;;;;;;;13.30;9.78;;;;;;;1.21;57.86;97022.14;1720288;82;21819;-54
2021/01/11 02:00:11;;;;;;;16.10;10.40;;;;;;;1.26;57.72;97018.19;1722802;82;21154;-54
2021/01/11 02:02:42;;;;;;;16.45;10.55;;;;;;;1.34;57.57;97021.83;1735347;80;21095;-54
2021/01/11 02:05:10;;;;;;;15.97;10.03;;;;;;;1.37;57.37;97016.64;1745831;80;21495;-52
2021/01/11 02:08:02;;;;;;;15.23;10.13;;;;;;;1.37;57.20;97008.97;1746890;80;21801;-53
2021/01/11 02:11:12;;;;;;;23.75;11.10;;;;;;;1.32;57.21;97010.81;1743364;81;21794;-54
2021/01/11 02:13:48;;;;;;;17.67;10.70;;;;;;;1.21;57.56;97010.64;1745725;80;21496;-53
2021/01/11 02:16:27;;;;;;;17.60;10.50;;;;;;;1.21;57.56;97010.64;1747364;80;21130;-54
2021/01/11 02:19:05;;;;;;;18.20;10.40;;;;;;;1.34;57.61;97025.22;1711122;83;21159;-54
2021/01/11 02:21:42;;;;;;;17.50;11.33;;;;;;;1.34;57.61;97025.22;1729164;81;21223;-54
2021/01/11 02:24:49;;;;;;;17.45;11.48;;;;;;;1.46;57.49;97015.95;1709424;82;21108;-53
2021/01/11 02:27:48;;;;;;;20.60;10.93;;;;;;;1.51;57.09;97010.68;1731080;82;21643;-53
2021/01/11 02:30:26;;;;;;;;;;;;;;;1.51;57.09;97010.68;1719228;82;21175;-54
2021/01/11 02:33:06;;;;;;;17.80;11.40;;;;;;;1.55;57.06;97002.06;1748758;80;20264;-54
2021/01/11 02:35:51;;;;;;;14.18;10.28;;;;;;;1.53;57.04;97002.55;1747035;80;22248;-53
2021/01/11 02:38:21;;;;;;;19.02;11.53;;;;;;;1.43;56.86;96996.85;1706906;82;21163;-55
2021/01/11 02:40:49;;;;;;;17.70;11.15;;;;;;;1.00;57.50;96995.42;1718831;82;21091;-52
2021/01/11 02:43:17;;;;;;;17.92;10.23;;;;;;;0.45;59.22;97001.47;1736669;81;21696;-53
2021/01/11 02:45:45;;;;;;;17.15;11.45;;;;;;;0.45;59.22;97001.47;1728206;81;21688;-53
2021/01/11 02:48:36;;;;;;;18.77;10.63;;;;;;;0.27;59.88;96998.08;1722354;81;21394;-53
2021/01/11 02:51:22;;;;;;;15.07;10.23;;;;;;;0.04;60.83;97001.98;1872267;75;22467;-53
2021/01/11 02:54:13;;;;;;;17.65;10.53;;;;;;;-0.24;61.53;96996.20;1841447;77;21639;-53
2021/01/11 02:57:16;;;;;;;17.55;10.25;;;;;;;-0.29;61.93;96995.90;1841623;77;21195;-54
2021/01/11 02:59:46;;;;;;;19.05;11.22;;;;;;;-0.13;62.03;96992.56;1843827;77;21583;-53
2021/01/11 03:02:15;;;;;;;15.78;10.65;;;;;;;-0.13;62.03;96992.56;1832608;77;21168;-55
2021/01/11 03:04:43;;;;;;;17.25;10.28;;;;;;;-0.02;62.09;96991.48;1812577;77;21203;-54
2021/01/11 03:07:11;;;;;;;18.42;10.75;;;;;;;0.09;61.91;96988.68;1823420;77;22365;-53
2021/01/11 03:09:41;;;;;;;15.18;9.63;;;;;;;0.04;61.78;96985.39;1816538;77;21374;-52
2021/01/11 03:12:10;;;;;;;14.10;9.25;;;;;;;-0.13;62.13;96981.95;1790504;78;20931;-54
2021/01/11 03:14:38;;;;;;;15.43;9.98;;;;;;;-0.24;62.57;96980.89;1784613;80;21077;-53
2021/01/11 03:17:06;;;;;;;15.40;10.70;;;;;;;-0.38;62.88;96977.78;1792981;78;21092;-52
2021/01/11 03:19:34;;;;;;;17.67;10.18;;;;;;;-0.45;63.26;96969.88;1786043;78;21173;-53
2021/01/11 03:22:04;;;;;;;16.75;10.48;;;;;;;-0.49;63.59;96963.17;1779856;79;21390;-53
2021/01/11 03:24:31;;;;;;;16.23;10.55;;;;;;;-0.45;63.67;96969.42;1777575;78;21490;-53
2021/01/11 03:27:00;;;;;;;14.50;10.78;;;;;;;-0.31;63.56;96965.74;1788014;78;21124;-53
2021/01/11 03:29:28;;;;;;;15.57;10.33;;;;;;;-0.17;63.35;96975.67;1779217;79;21069;-53
2021/01/11 03:31:56;;;;;;;16.87;11.33;;;;;;;0.01;62.96;96975.70;1790779;78;21529;-53
2021/01/11 03:34:24;;;;;;;14.47;9.80;;;;;;;0.12;62.66;96973.75;1786666;78;21247;-54
2021/01/11 03:36:52;;;;;;;17.02;10.70;;;;;;;0.26;62.34;96984.91;1777366;80;21180;-53
2021/01/11 03:39:19;;;;;;;15.28;9.93;;;;;;;0.27;62.12;96977.66;1796799;78;21056;-52
2021/01/11 03:41:47;;;;;;;18.87;11.38;;;;;;;0.21;62.08;96979.90;1772900;80;21051;-53
2021/01/11 03:44:15;;;;;;;16.07;10.98;;;;;;;0.05;62.26;96976.88;1789081;80;21080;-52
2021/01/11 03:46:43;;;;;;;19.65;11.03;;;;;;;-0.09;62.70;96978.89;1739243;81;21224;-53
2021/01/11 03:49:11;;;;;;;15.25;10.48;;;;;;;-0.31;63.22;96974.25;1783057;79;21120;-53
2021/01/11 03:51:38;;;;;;;18.12;10.82;;;;;;;-0.56;64.17;96976.03;1786028;78;21061;-53
2021/01/11 03:54:06;;;;;;;16.02;10.18;;;;;;;-0.56;64.17;96976.03;1779661;78;21192;-54
2021/01/11 03:56:33;;;;;;;16.20;11.00;;;;;;;-0.63;64.65;96979.56;1788037;78;21196;-52
2021/01/11 03:59:01;;;;;;;17.45;10.63;;;;;;;-0.70;64.92;96974.63;1787004;78;21370;-53
2021/01/11 04:01:29;;;;;;;15.83;10.43;;;;;;;-0.67;65.24;96979.67;1779917;78;21043;-53
2021/01/11 04:03:57;;;;;;;19.32;11.20;;;;;;;-0.69;65.28;96981.39;1760011;79;21137;-53
2021/01/11 04:06:26;;;;;;;22.22;10.90;;;;;;;-0.78;65.61;96976.88;1779392;78;21160;-52
2021/01/11 04:08:54;;;;;;;18.85;11.15;;;;;;;-0.85;65.98;96979.59;1784636;78;21133;-53
2021/01/11 04:11:21;;;;;;;15.05;9.50;;;;;;;-0.85;65.98;96979.59;1800079;78;21576;-52
2021/01/11 04:13:49;;;;;;;19.02;12.10;;;;;;;-0.93;66.43;96976.73;1787804;78;21553;-52
2021/01/11 04:16:17;;;;;;;15.98;11.03;;;;;;;-0.97;66.58;96977.67;1793630;78;21172;-53
2021/01/11 04:18:44;;;;;;;22.52;11.80;;;;;;;-1.00;66.83;96982.82;1770774;78;21180;-53
2021/01/11 04:21:13;;;;;;;16.55;10.65;;;;;;;-1.03;66.95;96975.23;1783354;80;21036;-53
2021/01/11 04:23:40;;;;;;;20.08;10.75;;;;;;;-1.08;67.29;96972.38;1773005;78;21245;-53
2021/01/11 04:26:10;;;;;;;20.15;11.95;;;;;;;-1.07;67.37;96976.59;1771230;80;21096;-53
2021/01/11 04:28:38;;;;;;;16.27;11.78;;;;;;;-1.04;67.48;96976.53;1780015;78;21109;-52
2021/01/11 04:31:07;;;;;;;17.55;11.40;;;;;;;-1.01;67.36;96972.66;1789474;78;26648;-52
2021/01/11 04:33:34;;;;;;;18.40;11.70;;;;;;;-1.00;67.41;96966.27;1789989;78;21129;-53
2021/01/11 04:36:04;;;;;;;16.30;10.27;;;;;;;-0.91;67.45;96970.78;1774816;78;21385;-52
2021/01/11 04:38:32;;;;;;;19.10;12.28;;;;;;;-0.80;67.26;96972.70;1785637;78;21117;-53
2021/01/11 04:41:01;;;;;;;18.45;11.63;;;;;;;-0.79;67.14;96971.39;1785081;78;21196;-53
2021/01/11 04:43:38;;;;;;;17.73;11.28;;;;;;;-0.81;67.14;96972.28;1780228;78;21053;-53
2021/01/11 04:46:05;;;;;;;16.95;10.90;;;;;;;-0.86;67.29;96974.91;1781325;78;21152;-53
2021/01/11 04:48:33;;;;;;;15.40;10.43;;;;;;;-0.95;67.44;96967.46;1760338;79;21616;-53
2021/01/11 04:51:01;;;;;;;16.70;11.65;;;;;;;-1.02;67.77;96969.28;1776511;78;21121;-53
2021/01/11 04:53:29;;;;;;;16.50;11.22;;;;;;;-1.11;68.03;96970.27;1793889;78;21096;-52
2021/01/11 04:55:59;;;;;;;18.55;10.43;;;;;;;-1.09;68.14;96968.14;1801843;78;21643;-52
2021/01/11 04:58:29;;;;;;;19.82;12.35;;;;;;;-1.06;68.24;96971.47;1791618;78;21124;-52
2021/01/11 05:01:00;;;;;;;19.87;12.25;;;;;;;-1.02;68.04;96970.97;1730194;81;21520;-53
2021/01/11 05:03:28;;;;;;;18.52;12.80;;;;;;;-0.98;68.16;96967.07;1747515;80;21563;-53
2021/01/11 05:05:56;;;;;;;17.83;11.93;;;;;;;-0.86;67.82;96970.26;1746110;80;21120;-53
2021/01/11 05:08:24;;;;;;;19.70;11.83;;;;;;;-0.76;67.56;96969.20;1727224;81;21579;-53
2021/01/11 05:10:52;;;;;;;18.15;10.70;;;;;;;-0.76;67.19;96975.16;1756333;80;21172;-54
2021/01/11 05:13:19;;;;;;;17.37;11.38;;;;;;;-0.79;67.16;96979.45;1745782;81;21508;-52
2021/01/11 05:15:47;;;;;;;19.67;12.23;;;;;;;-0.84;67.22;96979.98;1732945;81;21803;-53
2021/01/11 05:18:20;;;;;;;18.05;12.47;;;;;;;-0.88;67.31;96974.55;1748243;80;21688;-54
2021/01/11 05:20:49;;;;;;;17.35;11.35;;;;;;;-0.96;67.44;96977.23;1745278;80;21845;-55
2021/01/11 05:23:17;;;;;;;19.37;11.97;;;;;;;-1.01;67.61;96973.48;1751044;80;21140;-55
2021/01/11 05:25:45;;;;;;;23.60;12.90;;;;;;;-1.04;67.58;96969.72;1749039;80;21382;-55
2021/01/11 05:28:17;;;;;;;19.32;12.78;;;;;;;-1.04;67.79;96965.91;1755516;80;21553;-55
2021/01/11 05:30:49;;;;;;;20.10;12.25;;;;;;;-0.92;67.79;96963.59;1750323;80;21620;-54
2021/01/11 05:33:23;;;;;;;18.40;12.60;;;;;;;-0.84;67.48;96969.78;1743991;80;21108;-54
2021/01/11 05:36:12;;;;;;;21.30;12.25;;;;;;;-0.83;67.31;96960.02;1747111;80;21070;-54
2021/01/11 05:38:46;;;;;;;15.63;10.88;;;;;;;-0.81;67.33;96958.27;1755197;80;22192;-55
2021/01/11 05:41:18;;;;;;;20.20;11.75;;;;;;;-0.79;67.21;96961.61;1749909;80;21644;-54
2021/01/11 05:44:05;;;;;;;18.52;12.25;;;;;;;-0.79;67.23;96963.75;1752421;80;21880;-54
2021/01/11 05:46:33;;;;;;;22.75;13.03;;;;;;;-0.75;67.04;96964.53;1755100;81;21139;-54
2021/01/11 05:49:06;;;;;;;20.45;13.05;;;;;;;-0.76;67.18;96970.06;1755987;80;21128;-53
2021/01/11 05:51:35;;;;;;;22.67;14.30;;;;;;;-0.66;67.07;96972.41;1756179;79;22175;-54
2021/01/11 05:54:03;;;;;;;20.43;13.68;;;;;;;-0.59;66.72;96973.55;1753039;81;21199;-54
2021/01/11 05:56:57;;;;;;;21.45;14.25;;;;;;;-0.57;66.67;96971.80;1745882;81;21504;-53
2021/01/11 05:59:25;;;;;;;20.05;13.25;;;;;;;-0.51;66.48;96977.64;1733978;81;21142;-54
2021/01/11 06:02:00;;;;;;;20.30;12.80;;;;;;;-0.52;66.49;96982.35;1752790;81;21626;-54
2021/01/11 06:04:29;;;;;;;20.23;12.35;;;;;;;-0.58;66.56;96991.80;1729910;81;21209;-52
2021/01/11 06:06:58;;;;;;;20.05;12.33;;;;;;;-0.66;66.78;96984.75;1739981;81;21181;-52
2021/01/11 06:09:26;;;;;;;21.73;13.58;;;;;;;-0.71;67.17;96985.24;1723696;81;21090;-51
2021/01/11 06:11:54;;;;;;;22.10;13.78;;;;;;;-0.78;67.36;96991.34;1753625;81;21127;-53
2021/01/11 06:14:22;;;;;;;23.57;14.60;;;;;;;-0.80;67.72;96991.81;1733068;81;21461;-50
2021/01/11 06:16:50;;;;;;;26.42;15.08;;;;;;;-0.74;67.77;96998.07;1758357;81;21414;-51
2021/01/11 06:19:17;;;;;;;25.62;15.93;;;;;;;-0.64;67.72;97001.25;1729559;82;21148;-52
2021/01/11 06:21:50;;;;;;;35.05;16.20;;;;;;;-0.50;67.63;97004.81;1756087;81;21187;-51
2021/01/11 06:24:18;;;;;;;24.50;15.40;;;;;;;-0.34;67.30;97006.19;1746431;81;21164;-51
2021/01/11 06:26:46;;;;;;;23.60;14.85;;;;;;;-0.19;67.10;97006.30;1746337;81;21107;-51
2021/01/11 06:29:31;;;;;;;22.60;14.63;;;;;;;-0.03;66.76;97006.37;1716591;83;21453;-51
2021/01/11 06:32:21;;;;;;;23.75;14.20;;;;;;;0.17;66.24;97008.93;1739756;81;21064;-52
2021/01/11 06:34:49;;;;;;;22.07;13.40;;;;;;;0.39;65.64;97007.16;1750830;81;21061;-53
2021/01/11 06:37:23;;;;;;;21.02;14.07;;;;;;;0.55;65.08;97013.58;1731796;82;21219;-51
2021/01/11 06:39:53;;;;;;;21.55;14.53;;;;;;;0.69;64.70;97016.66;1733094;82;21189;-53
2021/01/11 06:42:20;;;;;;;22.82;14.20;;;;;;;0.81;64.23;97015.95;1750554;81;21542;-52
2021/01/11 06:44:49;;;;;;;22.07;13.55;;;;;;;0.87;63.94;97017.05;1731990;81;21129;-52
2021/01/11 06:47:28;;;;;;;22.52;13.83;;;;;;;0.93;63.65;97017.36;1750117;81;21123;-51
2021/01/11 06:50:08;;;;;;;25.62;13.75;;;;;;;0.97;63.38;97024.05;1756509;81;21200;-51
2021/01/11 06:52:37;;;;;;;;;;;;;;;0.97;63.18;97016.39;1754960;81;21116;-53
2021/01/11 06:55:12;;;;;;;20.80;14.18;;;;;;;0.97;62.74;97022.77;1734256;81;21890;-52
2021/01/11 06:57:40;;;;;;;21.68;12.93;;;;;;;0.74;62.92;97028.04;1744921;81;21127;-52
2021/01/11 07:00:10;;;;;;;25.25;13.58;;;;;;;0.54;63.35;97031.05;1720238;81;21579;-53
2021/01/11 07:02:41;;;;;;;26.48;14.10;;;;;;;0.33;64.49;97028.13;1740798;81;21575;-52
2021/01/11 07:05:38;;;;;;;28.52;16.52;;;;;;;0.33;64.49;97028.13;1747110;81;21227;-52
2021/01/11 07:08:15;;;;;;;23.32;14.07;;;;;;;0.26;64.45;97035.95;1721395;81;21363;-52
2021/01/11 07:10:44;;;;;;;26.07;13.65;;;;;;;-0.03;64.94;97028.06;1723314;82;21196;-52
2021/01/11 07:13:23;;;;;;;19.23;12.88;;;;;;;-0.02;65.18;97036.55;1746039;81;21074;-52
2021/01/11 07:15:56;;;;;;;23.83;13.10;;;;;;;-0.12;65.27;97041.45;1734698;81;21124;-53
2021/01/11 07:18:45;;;;;;;21.48;13.88;;;;;;;-0.19;65.80;97044.56;1735798;81;21209;-52
2021/01/11 07:21:23;;;;;;;23.47;13.62;;;;;;;-0.17;65.87;97041.98;1755972;80;21372;-53
2021/01/11 07:23:53;;;;;;;19.15;12.43;;;;;;;-0.10;65.92;97039.28;1736604;81;21105;-50
2021/01/11 07:26:22;;;;;;;;;;;;;;;-0.10;65.92;97039.28;1736548;81;21141;-53
2021/01/11 07:29:02;;;;;;;19.98;12.35;;;;;;;-0.19;65.90;97047.94;1736297;81;20217;-51
2021/01/11 07:31:36;;;;;;;21.15;13.50;;;;;;;-0.37;66.15;97050.87;1739510;81;21070;-50
2021/01/11 07:34:14;;;;;;;20.75;13.50;;;;;;;-0.49;66.52;97050.68;1747564;81;21380;-50
2021/01/11 07:36:50;;;;;;;19.60;12.00;;;;;;;-0.39;66.96;97056.00;1741875;80;21215;-51
2021/01/11 07:39:25;;;;;;;22.67;12.90;;;;;;;-0.28;66.59;97058.34;1746972;81;21153;-51
2021/01/11 07:42:02;;;;;;;21.57;14.07;;;;;;;-0.28;66.41;97056.21;1746135;81;21165;-51
2021/01/11 07:44:39;;;;;;;25.67;13.83;;;;;;;-0.37;66.65;97052.14;1875370;76;22861;-51
2021/01/11 07:47:14;;;;;;;31.97;15.18;;;;;;;-0.35;67.32;97047.84;1848409;77;21139;-51
2021/01/11 07:49:51;;;;;;;27.87;15.10;;;;;;;-0.35;67.32;97047.84;1840648;77;21580;-50
2021/01/11 07:52:22;;;;;;;30.77;17.70;;;;;;;-0.25;67.15;97047.23;1839925;77;21197;-50
2021/01/11 07:55:00;;;;;;;22.70;14.00;;;;;;;-0.27;67.50;97052.80;1859903;77;21580;-51
2021/01/11 07:57:30;;;;;;;23.87;12.77;;;;;;;-0.23;67.72;97055.27;1854152;77;21080;-50
2021/01/11 08:00:07;;;;;;;21.37;12.80;;;;;;;-0.15;67.20;97048.72;1845840;77;21156;-51
2021/01/11 08:02:46;;;;;;;24.18;13.75;;;;;;;-0.20;66.58;97052.66;1791554;78;21387;-52
2021/01/11 08:05:21;;;;;;;20.60;13.13;;;;;;;-0.30;66.85;97050.31;1783808;79;21156;-51
2021/01/11 08:07:52;;;;;;;19.92;12.37;;;;;;;-0.45;67.24;97052.73;1784241;79;21546;-52
2021/01/11 08:10:24;;;;;;;21.25;12.50;;;;;;;-0.57;67.33;97048.71;1776797;79;21577;-51
2021/01/11 08:12:52;;;;;;;20.12;12.65;;;;;;;-0.61;67.78;97051.75;1790129;78;21146;-51
2021/01/11 08:15:20;;;;;;;35.50;14.15;;;;;;;-0.66;67.44;97057.38;1753197;80;21827;-51
2021/01/11 08:17:48;;;;;;;28.15;14.58;;;;;;;-0.74;67.77;97047.76;1779341;79;21762;-51
2021/01/11 08:20:24;;;;;;;40.00;14.70;;;;;;;-0.70;67.93;97048.54;1800764;78;21149;-50
2021/01/11 08:22:52;;;;;;;21.02;10.50;;;;;;;-0.71;67.73;97052.77;1781942;78;21138;-52
2021/01/11 08:25:20;;;;;;;25.57;13.10;;;;;;;-0.65;67.76;97055.22;1751418;80;21181;-52
2021/01/11 08:27:49;;;;;;;36.73;14.67;;;;;;;-0.69;67.45;97053.61;1775500;79;21392;-53
2021/01/11 08:30:24;;;;;;;39.05;14.58;;;;;;;-0.88;67.84;97055.63;1781440;79;21129;-51
2021/01/11 08:32:52;;;;;;;295.07;164.03;;;;;;;-0.89;68.55;97062.03;1781449;79;21633;-52
2021/01/11 08:35:23;;;;;;;27.75;14.90;;;;;;;-0.86;68.30;97061.98;1770546;79;21864;-52
2021/01/11 08:37:59;;;;;;;18.10;10.93;;;;;;;-0.80;67.69;97061.43;1773124;80;21112;-52
2021/01/11 08:40:29;;;;;;;19.98;12.50;;;;;;;-0.85;67.80;97057.30;1776093;80;21625;-52
2021/01/11 08:43:13;;;;;;;32.00;12.45;;;;;;;-0.95;68.18;97064.27;1770064;80;21600;-52
2021/01/11 08:45:42;;;;;;;27.98;12.07;;;;;;;-0.96;68.46;97065.12;1757488;79;21132;-53
2021/01/11 08:48:14;;;;;;;53.02;15.18;;;;;;;-0.87;68.48;97075.16;1773268;80;21203;-51
2021/01/11 08:50:56;;;;;;;25.82;13.10;;;;;;;-0.85;68.48;97062.39;1772935;79;21056;-53
2021/01/11 08:53:29;;;;;;;38.15;14.90;;;;;;;-0.88;68.66;97063.72;1762637;80;21421;-53
2021/01/11 08:56:07;;;;;;;46.10;17.23;;;;;;;-0.87;68.78;97063.69;1764016;80;21580;-53
2021/01/11 08:58:38;;;;;;;29.42;15.28;;;;;;;-0.81;68.83;97061.45;1777843;80;21119;-52
2021/01/11 09:01:15;;;;;;;31.75;14.60;;;;;;;-0.74;68.82;97055.41;1772249;80;21562;-52
2021/01/11 09:03:54;;;;;;;23.73;13.32;;;;;;;-0.70;68.86;97055.73;1768233;79;21136;-53
2021/01/11 09:06:41;;;;;;;77.92;19.82;;;;;;;-0.58;68.61;97052.98;1775737;79;21348;-51
2021/01/11 09:09:17;;;;;;;67.20;18.80;;;;;;;-0.57;68.41;97056.36;1762526;80;21102;-52
2021/01/11 09:11:48;;;;;;;81.42;17.42;;;;;;;-0.57;68.52;97055.91;1764195;79;21128;-51
2021/01/11 09:14:18;;;;;;;55.15;18.48;;;;;;;-0.54;68.35;97054.16;1764626;80;21103;-52
2021/01/11 09:16:56;;;;;;;25.27;14.15;;;;;;;-0.45;68.37;97051.01;1762150;81;21120;-52
2021/01/11 09:19:24;;;;;;;27.87;14.73;;;;;;;-0.35;67.56;97052.11;1756394;79;21355;-52
2021/01/11 09:22:03;;;;;;;48.02;22.77;;;;;;;-0.42;67.99;97048.84;1766146;80;21161;-52
2021/01/11 09:24:31;;;;;;;29.60;15.72;;;;;;;-0.35;68.02;97045.73;1755524;80;21188;-51
2021/01/11 09:26:59;;;;;;;25.68;16.02;;;;;;;-0.23;67.78;97051.86;1759524;80;21061;-51
2021/01/11 09:29:28;;;;;;;23.95;14.80;;;;;;;-0.26;67.57;97038.75;1770851;80;21572;-53
2021/01/11 09:31:57;;;;;;;25.92;15.32;;;;;;;-0.21;67.58;97036.11;1757719;80;22303;-52
2021/01/11 09:34:25;;;;;;;26.35;15.75;;;;;;;-0.26;67.29;97033.65;1767488;80;21078;-52
2021/01/11 09:36:53;;;;;;;68.07;36.90;;;;;;;-0.18;66.90;97039.88;1763933;80;21196;-51
2021/01/11 09:39:21;;;;;;;32.98;18.85;;;;;;;-0.11;66.84;97037.59;1763937;80;21184;-52
2021/01/11 09:41:59;;;;;;;26.10;15.95;;;;;;;-0.03;66.78;97034.89;1755729;80;21135;-53
2021/01/11 09:44:29;;;;;;;27.58;15.48;;;;;;;-0.03;66.49;97028.06;1755926;80;21375;-53
2021/01/11 09:46:57;;;;;;;22.00;13.18;;;;;;;-0.06;66.18;97028.13;1767266;80;21064;-53
2021/01/11 09:49:25;;;;;;;22.05;13.50;;;;;;;-0.16;65.61;97029.20;1768493;80;21081;-51
2021/01/11 09:51:54;;;;;;;20.77;12.78;;;;;;;-0.36;66.04;97024.52;1760299;80;22170;-52
2021/01/11 09:54:21;;;;;;;28.10;14.58;;;;;;;-0.44;66.66;97020.83;1766606;80;21110;-52
2021/01/11 09:56:49;;;;;;;18.73;11.83;;;;;;;-0.41;66.89;97019.95;1782892;78;22489;-52
2021/01/11 09:59:16;;;;;;;23.02;13.58;;;;;;;-0.42;65.99;97019.08;1750567;78;21609;-52
2021/01/11 10:01:48;;;;;;;21.07;12.82;;;;;;;-0.55;66.08;97011.28;1768807;79;21068;-52
2021/01/11 10:04:18;;;;;;;19.70;11.83;;;;;;;-0.68;66.95;97011.11;1764758;80;21148;-51
2021/01/11 10:06:50;;;;;;;17.02;11.22;;;;;;;-0.81;67.04;97016.87;1771000;78;21488;-52
2021/01/11 10:09:22;;;;;;;20.80;12.50;;;;;;;-0.86;67.06;97011.85;1791397;79;21192;-55
2021/01/11 10:11:56;;;;;;;18.32;11.88;;;;;;;-0.88;67.25;97012.32;1777254;78;21160;-52
2021/01/11 10:14:24;;;;;;;17.37;11.73;;;;;;;-0.80;66.90;97023.21;1787905;78;21164;-52
2021/01/11 10:16:52;;;;;;;23.62;13.10;;;;;;;-0.79;66.47;97010.03;1784822;79;21109;-52
2021/01/11 10:19:23;;;;;;;19.73;11.67;;;;;;;-0.84;66.47;97001.22;1778719;78;21552;-51
2021/01/11 10:21:51;;;;;;;24.00;11.97;;;;;;;-0.84;66.60;96998.67;1785430;78;21421;-51
2021/01/11 10:24:21;;;;;;;18.90;11.57;;;;;;;-0.83;66.76;96995.23;1782146;78;21138;-52
2021/01/11 10:26:50;;;;;;;18.73;12.00;;;;;;;-0.80;66.51;96994.36;1777545;78;21069;-51
2021/01/11 10:29:23;;;;;;;16.40;10.50;;;;;;;-0.79;66.90;96992.19;1789826;78;21145;-51
2021/01/11 10:31:53;;;;;;;18.90;10.78;;;;;;;-0.76;65.71;96993.41;1788084;78;21112;-52
2021/01/11 10:34:21;;;;;;;16.05;10.65;;;;;;;-0.76;65.80;96994.27;1788393;78;21336;-52
2021/01/11 10:36:51;;;;;;;16.35;10.13;;;;;;;-0.77;66.04;96987.93;1783639;78;21187;-50
2021/01/11 10:39:21;;;;;;;19.27;10.32;;;;;;;-0.72;66.39;96991.64;1784194;79;21187;-54
2021/01/11 10:41:53;;;;;;;13.53;9.23;;;;;;;-0.64;65.44;96985.55;1788273;78;21086;-51
2021/01/11 10:44:22;;;;;;;19.77;10.40;;;;;;;-0.54;64.84;96980.25;1770972;78;21140;-53
2021/01/11 10:46:51;;;;;;;30.72;12.90;;;;;;;-0.42;65.01;96982.56;1759094;80;21357;-51
2021/01/11 10:49:21;;;;;;;28.75;12.13;;;;;;;-0.35;64.69;96975.17;1755402;80;22001;-50
2021/01/11 10:51:49;;;;;;;16.35;9.45;;;;;;;-0.28;65.11;96974.61;1729037;82;21170;-50
2021/01/11 10:54:17;;;;;;;98.37;53.85;;;;;;;-0.19;63.63;96976.98;1730595;82;21100;-51
2021/01/11 10:56:45;;;;;;;43.52;18.40;;;;;;;-0.31;64.03;96972.12;1750553;80;21490;-52
2021/01/11 10:59:13;;;;;;;22.25;10.95;;;;;;;-0.32;64.21;96964.09;1759776;81;21149;-50
2021/01/11 11:01:41;;;;;;;19.27;10.48;;;;;;;-0.31;63.47;96960.23;1762228;80;21106;-52
2021/01/11 11:04:15;;;;;;;30.40;11.68;;;;;;;-0.32;63.02;96967.91;1758436;80;21176;-52
2021/01/11 11:06:43;;;;;;;22.62;10.90;;;;;;;-0.38;63.57;96959.94;1757878;80;21121;-52
2021/01/11 11:09:10;;;;;;;21.20;10.95;;;;;;;-0.37;63.60;96956.08;1751207;80;21203;-52
2021/01/11 11:11:38;;;;;;;44.38;12.33;;;;;;;-0.34;63.50;96952.64;1754804;80;21346;-51
2021/01/11 11:14:05;;;;;;;18.17;10.58;;;;;;;-0.33;63.16;96959.44;1761341;80;21589;-51
2021/01/11 11:16:38;;;;;;;18.98;10.00;;;;;;;-0.34;63.03;96959.02;1757820;80;21654;-53
2021/01/11 11:19:09;;;;;;;24.65;11.43;;;;;;;-0.32;62.71;96955.99;1750987;80;21044;-53
2021/01/11 11:21:37;;;;;;;31.90;10.95;;;;;;;-0.35;62.97;96947.13;1755546;80;21744;-51
2021/01/11 11:24:06;;;;;;;32.20;12.68;;;;;;;-0.36;63.33;96944.20;1758667;80;21404;-51
2021/01/11 11:26:33;;;;;;;24.15;11.22;;;;;;;-0.27;63.65;96945.25;1761197;81;21175;-51
2021/01/11 11:29:01;;;;;;;28.87;15.95;;;;;;;-0.12;62.70;96936.87;1766143;80;21112;-51
2021/01/11 11:31:33;;;;;;;25.92;13.60;;;;;;;-0.12;62.20;96940.25;1760554;80;21208;-51
2021/01/11 11:34:01;;;;;;;19.48;11.73;;;;;;;-0.11;62.24;96938.11;1758047;80;21149;-51
2021/01/11 11:36:30;;;;;;;22.45;11.57;;;;;;;-0.09;62.34;96935.08;1757491;81;22185;-51
2021/01/11 11:38:58;;;;;;;17.95;10.82;;;;;;;-0.03;62.77;96928.57;1763035;80;21164;-52
2021/01/11 11:41:28;;;;;;;17.62;10.48;;;;;;;0.09;61.36;96925.34;1766883;80;21052;-54